Thursday, August 16, 2018, 9:59 AM EDT
Back to Local

KMWN, Mount Washington

Location: Bretton Woods, NH, United States Lat: 44.267
Local Time: 9:59 AM EDT (13:59 GMT) Lon: -71.3
Time Zone: US/Eastern Elev: 6263 ft

Show me the last for .
Show Coded

Time T Td Feel RH Dir Speed Gust Alt SLP Vis Weather Sky Remarks
2018-08-16 08:49 50 50 40 100 300° 49 55 - - 0 FG VV001 None
2018-08-16 07:59 50 50 40 100 290° 48 55 - - 0 FG VV001 6-hr Precip Total (8am): 0.25"
24-hr Precip Total (8am): 0.58"
6-hr Min Temp (8am): 50.5°F
6-hr Max Temp (8am): 53.8°F
2018-08-16 06:48 52 52 - 100 280° 32 39 - - 0 RA FG VV001 None
2018-08-16 05:53 52 52 - 100 280° 39 46 - - 0 FG VV000 None
2018-08-16 04:52 52 52 - 100 290° 44 52 - - 0 FG VV000 None
2018-08-16 03:51 52 52 - 100 300° 43 49 - - 0 FG VV000 None
2018-08-16 02:53 54 54 - 100 300° 43 54 - - 0 FG VV000 None
2018-08-16 01:52 54 54 - 100 300° 37 44 - - 0 FG VV000 6-hr Precip Total (2am): 0.33"
6-hr Min Temp (2am): 51.3°F
6-hr Max Temp (2am): 54.9°F
2018-08-16 00:50 54 54 - 100 300° 39 - - - 0 FG VV000 None
2018-08-15 23:54 52 52 - 100 300° 40 - - - 0 FG VV000 None
2018-08-15 22:55 54 54 - 100 290° 46 58 - - 0 SHRA FG VV000 None
2018-08-15 21:49 54 54 - 100 290° 38 - - - 0 FG VV000 None
2018-08-15 20:51 54 54 - 100 290° 36 - - - 0 FG VV000 Lighting in the vicinity
2018-08-15 19:53 54 52 - 93 300° 38 - - - 20 FEW010 BKN100 BKN120CB BKN160 BKN200 6-hr Min Temp (8pm): 53.4°F
6-hr Max Temp (8pm): 59.7°F
2018-08-15 18:56 55 55 - 100 290° 32 41 - - 0 FG BKN000 None
2018-08-15 17:51 55 55 - 100 300° 33 38 - - 0 FG VV001 None
2018-08-15 16:50 55 55 - 100 300° 33 40 - - 0 FG VV001 None
2018-08-15 15:54 55 55 - 100 310° 28 37 - - 0 FG VV001 None
2018-08-15 14:49 55 55 - 100 300° 35 43 - - 0 FG VV001 None
2018-08-15 13:59 55 55 - 100 310° 30 43 - - 0 FG VV001 24-hr Precip Total (2pm): 0.00"
6-hr Min Temp (2pm): 51.1°F
6-hr Max Temp (2pm): 57.9°F
2018-08-15 12:50 55 55 - 100 300° 29 - - - 0 FG VV001 None
2018-08-15 11:56 54 54 - 100 320° 21 - - - 0 FG VV001 None
2018-08-15 10:53 57 55 - 93 320° 10 - - - 20 BCFG SCT000 SCT180 None

Support USWX by starting your Amazon purchase here.